This is the latest recevied weather packets stored in our database for station/object XE2RCS-1. If no packets are shown the sender has not sent any weather packets the latest 10 day(s).
| Time | Temp. | Humidity | Pressure | Rain* | Wind** | Luminosity | Snow |
|---|---|---|---|---|---|---|---|
| 1788137537 | 23.33° C | 59% | 1015 hPa | 0 mm | - | - | - |
| 1788136937 | 23.89° C | 66% | 1016 hPa | 0 mm | - | - | - |
| 1788136336 | 23.89° C | 51% | 1018 hPa | 0 mm | - | - | - |
| 1788135735 | 23.89° C | 51% | 1018 hPa | 0 mm | - | - | - |
| 1788135135 | 23.89° C | 50% | 1017 hPa | 0 mm | - | - | - |
| 1788134534 | 24.44° C | 49% | 1015 hPa | 0 mm | - | - | - |
| 1788133933 | 24.44° C | 50% | 1015 hPa | 0 mm | - | - | - |
| 1788133333 | 25.56° C | 66% | 1015 hPa | 0 mm | - | - | - |
| 1788132732 | 23.89° C | 45% | 1018 hPa | 0 mm | - | - | - |
| 1788132131 | 23.89° C | 46% | 1018 hPa | 0 mm | - | - | - |
| 1788131531 | 23.89° C | 48% | 1017 hPa | 0 mm | - | - | - |
| 1788130930 | 23.89° C | 53% | 1015 hPa | 0 mm | - | - | - |
| 1788130329 | 23.33° C | 54% | 1015 hPa | 0 mm | - | - | - |
| 1788129729 | 23.33° C | 55% | 1014 hPa | 0 mm | - | - | - |
| 1788129128 | 23.89° C | 55% | 1014 hPa | 0 mm | - | - | - |
| 1788128528 | 23.33° C | 55% | 1014 hPa | 0 mm | - | - | - |
| 1788127927 | 22.78° C | 59% | 1014 hPa | 0 mm | - | - | - |
| 1788127337 | 23.33° C | 58% | 1014 hPa | 0 mm | - | - | - |
| 1788126726 | 23.33° C | 57% | 1014 hPa | 0 mm | - | - | - |
| 1788126125 | 23.89° C | 58% | 1015 hPa | 0 mm | - | - | - |
| 1788125524 | 24.44° C | 55% | 1016 hPa | 0 mm | - | - | - |
| 1788124924 | 24.44° C | 53% | 1018 hPa | 0 mm | - | - | - |
| 1788124323 | 24.44° C | 52% | 1018 hPa | 0 mm | - | - | - |
| 1788123722 | 25° C | 46% | 1016 hPa | 0 mm | - | - | - |
| 1788123122 | 25° C | 35% | 1016 hPa | 0 mm | - | - | - |
* Rain latest hour (hover to see other rain measurements)
** Current wind speed in m/s (hover to see current wind gust speed)